Time;durP1;ratioP1;P1;durP2;ratioP2;P2;SDS_P1;SDS_P2;PMS_P1;PMS_P2;Temp;Humidity;BMP_temperature;BMP_pressure;BME280_temperature;BME280_humidity;BME280_pressure;Samples;Min_cycle;Max_cycle;Signal;HPM_P1;HPM_P2
2022/07/16 00:01:22;;;;;;;;;;;20.40;41.90;;;;;;6250831;23;19919;-89
2022/07/16 00:01:48;;;;;;;;;;;20.40;42.40;;;;;;6249329;23;19910;-88
2022/07/16 00:04:14;;;;;;;;;;;20.50;42.20;;;;;;6248824;23;19912;-88
2022/07/16 00:06:39;;;;;;;;;;;20.50;42.10;;;;;;6250770;23;19908;-88
2022/07/16 00:09:05;;;;;;;;;;;20.50;42.00;;;;;;6250383;22;19916;-88
2022/07/16 00:11:30;;;;;;;;;;;20.50;41.90;;;;;;6250203;23;19911;-87
2022/07/16 00:13:56;;;;;;;;;;;20.40;41.70;;;;;;6222716;23;20317;-88
2022/07/16 00:16:21;;;;;;;;;;;20.40;41.70;;;;;;6250067;23;19911;-88
2022/07/16 00:21:31;;;;;;;;;;;20.30;41.60;;;;;;6250235;23;19911;-88
2022/07/16 00:23:56;;;;;;;;;;;20.20;41.60;;;;;;6250379;23;19916;-88
2022/07/16 00:26:22;;;;;;;;;;;20.20;41.60;;;;;;6250116;23;19950;-87
2022/07/16 00:28:48;;;;;;;;;;;20.10;41.60;;;;;;6250532;22;19923;-87
2022/07/16 00:31:13;;;;;;;;;;;20.10;41.60;;;;;;6248478;23;19908;-87
2022/07/16 00:33:39;;;;;;;;;;;20.00;41.70;;;;;;6249349;22;19911;-87
2022/07/16 00:36:05;;;;;;;;;;;20.10;41.70;;;;;;6221915;23;19904;-87
2022/07/16 00:38:30;;;;;;;;;;;20.10;41.70;;;;;;6223872;23;19919;-87
2022/07/16 00:40:56;;;;;;;;;;;20.20;41.60;;;;;;6251884;23;20323;-87
2022/07/16 00:43:21;;;;;;;;;;;20.30;41.60;;;;;;6249692;22;19907;-87
2022/07/16 00:45:47;;;;;;;;;;;20.30;41.60;;;;;;6249186;23;19938;-87
2022/07/16 00:48:12;;;;;;;;;;;20.30;41.70;;;;;;6248966;23;19942;-87
2022/07/16 00:50:38;;;;;;;;;;;20.30;41.90;;;;;;6249787;23;19977;-87
2022/07/16 00:53:04;;;;;;;;;;;20.40;41.90;;;;;;6223531;23;20431;-89
2022/07/16 00:55:30;;;;;;;;;;;20.50;42.00;;;;;;6249876;23;20260;-86
2022/07/16 00:57:56;;;;;;;;;;;20.70;41.90;;;;;;6250620;23;20030;-87
2022/07/16 01:00:22;;;;;;;;;;;20.70;41.70;;;;;;6251271;22;19934;-86
2022/07/16 01:02:48;;;;;;;;;;;20.80;41.60;;;;;;6251529;23;19943;-86
2022/07/16 01:05:14;;;;;;;;;;;20.90;41.60;;;;;;6250456;22;19904;-87
2022/07/16 01:07:39;;;;;;;;;;;21.00;41.60;;;;;;6249403;23;19911;-87
2022/07/16 01:10:05;;;;;;;;;;;21.10;41.50;;;;;;6250453;22;19907;-87
2022/07/16 01:12:31;;;;;;;;;;;21.20;41.60;;;;;;6249992;23;19927;-87
2022/07/16 01:14:57;;;;;;;;;;;21.20;41.50;;;;;;6223515;23;19904;-87
2022/07/16 01:17:23;;;;;;;;;;;21.30;41.40;;;;;;6249414;22;19961;-87
2022/07/16 01:19:48;;;;;;;;;;;21.30;41.30;;;;;;6223443;23;19911;-87
2022/07/16 01:22:21;;;;;;;;;;;21.40;41.30;;;;;;6251830;22;19916;-87
2022/07/16 01:24:47;;;;;;;;;;;21.50;41.30;;;;;;6249722;23;19911;-88
2022/07/16 01:27:13;;;;;;;;;;;21.50;41.30;;;;;;6226058;23;19915;-87
2022/07/16 01:29:38;;;;;;;;;;;21.60;41.30;;;;;;6251048;23;20217;-89
2022/07/16 01:32:04;;;;;;;;;;;21.70;41.20;;;;;;6225263;23;19915;-88
2022/07/16 01:34:30;;;;;;;;;;;21.70;41.30;;;;;;6252500;23;20232;-87
2022/07/16 01:36:57;;;;;;;;;;;21.80;41.20;;;;;;6234790;23;19950;-87
2022/07/16 01:39:25;;;;;;;;;;;21.80;41.30;;;;;;6254934;23;19903;-86
2022/07/16 01:41:51;;;;;;;;;;;21.90;41.40;;;;;;6251447;23;19963;-87
2022/07/16 01:44:16;;;;;;;;;;;22.00;41.50;;;;;;6250117;23;19947;-87
2022/07/16 01:46:42;;;;;;;;;;;22.00;41.40;;;;;;6250267;23;19918;-87
2022/07/16 01:49:07;;;;;;;;;;;22.10;41.30;;;;;;6251416;23;19911;-87
2022/07/16 01:51:33;;;;;;;;;;;22.10;41.30;;;;;;6250336;22;19955;-87
2022/07/16 01:53:58;;;;;;;;;;;22.20;41.30;;;;;;6250236;23;19919;-87
2022/07/16 01:56:24;;;;;;;;;;;22.20;41.20;;;;;;6249159;23;19908;-87
2022/07/16 01:58:49;;;;;;;;;;;22.20;41.10;;;;;;6249173;23;19911;-86
2022/07/16 02:01:14;;;;;;;;;;;22.20;41.00;;;;;;6254099;22;19943;-87
2022/07/16 02:03:40;;;;;;;;;;;22.30;41.00;;;;;;6257514;23;19908;-87
2022/07/16 02:06:05;;;;;;;;;;;22.30;40.80;;;;;;6226216;23;19908;-87
2022/07/16 02:08:31;;;;;;;;;;;22.30;40.80;;;;;;6253096;23;19907;-87
2022/07/16 02:10:56;;;;;;;;;;;22.20;40.70;;;;;;6224874;23;19931;-88
2022/07/16 02:13:22;;;;;;;;;;;22.20;40.60;;;;;;6253208;23;19908;-87
2022/07/16 02:15:47;;;;;;;;;;;22.20;40.60;;;;;;6249412;23;19943;-87
2022/07/16 02:18:14;;;;;;;;;;;22.20;40.50;;;;;;6249472;23;20214;-87
2022/07/16 02:20:39;;;;;;;;;;;22.20;40.50;;;;;;6223400;23;19908;-87
2022/07/16 02:23:05;;;;;;;;;;;22.20;40.50;;;;;;6249178;23;19951;-87
2022/07/16 02:25:30;;;;;;;;;;;22.20;40.50;;;;;;6251826;22;20318;-92
2022/07/16 02:28:08;;;;;;;;;;;22.30;40.40;;;;;;6230998;23;19911;-92
2022/07/16 02:30:38;;;;;;;;;;;22.20;40.40;;;;;;6258062;22;19966;-92
2022/07/16 02:33:05;;;;;;;;;;;22.30;40.40;;;;;;6230644;23;19942;-92
2022/07/16 02:35:30;;;;;;;;;;;22.30;40.40;;;;;;6231015;23;19918;-92
2022/07/16 02:37:56;;;;;;;;;;;22.30;40.40;;;;;;6259077;23;20249;-93
2022/07/16 02:40:22;;;;;;;;;;;22.30;40.30;;;;;;6258952;22;19911;-91
2022/07/16 02:42:47;;;;;;;;;;;22.40;40.30;;;;;;6255547;23;19912;-92
2022/07/16 02:45:13;;;;;;;;;;;22.40;40.40;;;;;;6253349;23;19997;-92
2022/07/16 02:47:39;;;;;;;;;;;22.40;40.40;;;;;;6252293;23;20364;-92
2022/07/16 02:50:05;;;;;;;;;;;22.50;40.40;;;;;;6253452;22;19915;-92
2022/07/16 02:52:30;;;;;;;;;;;22.50;40.30;;;;;;6226743;23;19903;-92
2022/07/16 02:54:55;;;;;;;;;;;22.50;40.40;;;;;;6252171;23;19903;-92
2022/07/16 02:57:21;;;;;;;;;;;22.50;40.30;;;;;;6255172;22;19916;-90
2022/07/16 02:59:46;;;;;;;;;;;22.50;40.30;;;;;;6255926;23;19962;-91
2022/07/16 03:02:12;;;;;;;;;;;22.60;40.40;;;;;;6253813;23;19933;-92
2022/07/16 03:04:37;;;;;;;;;;;22.60;40.40;;;;;;6228802;23;19934;-93
2022/07/16 03:07:03;;;;;;;;;;;22.60;40.40;;;;;;6256320;23;20327;-91
2022/07/16 03:09:28;;;;;;;;;;;22.60;40.40;;;;;;6255934;23;20236;-92
2022/07/16 03:11:54;;;;;;;;;;;22.60;40.40;;;;;;6229540;23;19938;-92
2022/07/16 03:14:19;;;;;;;;;;;22.60;40.30;;;;;;6253598;23;19984;-92
2022/07/16 03:16:45;;;;;;;;;;;22.60;40.30;;;;;;6228088;23;19922;-92
2022/07/16 03:19:10;;;;;;;;;;;22.60;40.20;;;;;;6253367;23;19911;-93
2022/07/16 03:21:36;;;;;;;;;;;22.60;40.20;;;;;;6251880;23;19916;-92
2022/07/16 03:24:01;;;;;;;;;;;22.50;40.20;;;;;;6253310;23;19968;-92
2022/07/16 03:26:27;;;;;;;;;;;22.60;40.20;;;;;;6254887;22;20456;-92
2022/07/16 03:28:52;;;;;;;;;;;22.50;40.20;;;;;;6253961;23;19915;-92
2022/07/16 03:31:29;;;;;;;;;;;22.50;40.30;;;;;;6229825;23;19966;-92
2022/07/16 03:33:55;;;;;;;;;;;22.50;40.30;;;;;;6254499;23;19919;-92
2022/07/16 03:36:22;;;;;;;;;;;22.50;40.30;;;;;;6253842;22;19923;-92
2022/07/16 03:38:57;;;;;;;;;;;22.50;40.30;;;;;;6252894;23;19988;-93
2022/07/16 03:41:22;;;;;;;;;;;22.40;40.40;;;;;;6253975;22;19919;-92
2022/07/16 03:43:48;;;;;;;;;;;22.40;40.40;;;;;;6253844;23;19907;-93
2022/07/16 03:46:13;;;;;;;;;;;22.40;40.40;;;;;;6255345;22;19916;-93
2022/07/16 03:48:39;;;;;;;;;;;22.40;40.40;;;;;;6252716;23;19911;-92
2022/07/16 03:51:06;;;;;;;;;;;22.40;40.50;;;;;;6255071;22;19922;-93
2022/07/16 03:53:32;;;;;;;;;;;22.40;40.40;;;;;;6255063;23;20328;-93
2022/07/16 03:55:58;;;;;;;;;;;22.40;40.50;;;;;;6227724;23;19911;-93
2022/07/16 03:58:23;;;;;;;;;;;22.40;40.60;;;;;;6255470;23;19912;-93
2022/07/16 04:00:49;;;;;;;;;;;22.40;40.50;;;;;;6252376;23;20302;-93
2022/07/16 04:03:14;;;;;;;;;;;22.40;40.60;;;;;;6252017;23;19911;-93
2022/07/16 04:05:40;;;;;;;;;;;22.40;40.60;;;;;;6250494;23;19903;-94
2022/07/16 04:08:05;;;;;;;;;;;22.50;40.60;;;;;;6251957;23;19916;-94
2022/07/16 04:10:30;;;;;;;;;;;22.50;40.60;;;;;;6252459;23;19990;-92
2022/07/16 04:12:56;;;;;;;;;;;22.50;40.60;;;;;;6253980;22;19911;-92
2022/07/16 04:15:21;;;;;;;;;;;22.60;40.60;;;;;;6253565;23;19904;-93
2022/07/16 04:17:47;;;;;;;;;;;22.60;40.50;;;;;;6251786;23;19912;-93
2022/07/16 04:20:12;;;;;;;;;;;22.70;40.40;;;;;;6226793;23;19888;-91
2022/07/16 04:22:38;;;;;;;;;;;22.70;40.40;;;;;;6253198;22;19916;-93
2022/07/16 04:25:04;;;;;;;;;;;22.70;40.30;;;;;;6251298;23;20315;-93
2022/07/16 04:27:31;;;;;;;;;;;22.70;40.20;;;;;;6252950;22;22340;-90
2022/07/16 04:29:56;;;;;;;;;;;22.80;40.10;;;;;;6253173;23;19958;-93
2022/07/16 04:32:22;;;;;;;;;;;22.80;40.00;;;;;;6253598;23;19978;-92
2022/07/16 04:34:47;;;;;;;;;;;22.90;39.90;;;;;;6253029;23;19930;-94
2022/07/16 04:37:13;;;;;;;;;;;22.90;39.90;;;;;;6251902;23;19948;-91
2022/07/16 04:39:38;;;;;;;;;;;22.90;39.80;;;;;;6251899;23;19907;-92
2022/07/16 04:42:04;;;;;;;;;;;23.00;39.80;;;;;;6252159;22;19986;-91
2022/07/16 04:44:29;;;;;;;;;;;23.00;39.70;;;;;;6252999;23;19912;-91
2022/07/16 04:46:55;;;;;;;;;;;23.00;39.70;;;;;;6252761;23;19927;-91
2022/07/16 04:49:20;;;;;;;;;;;23.00;39.70;;;;;;6252302;22;19920;-91
2022/07/16 04:51:48;;;;;;;;;;;23.10;39.80;;;;;;6250845;23;19914;-92
2022/07/16 04:54:14;;;;;;;;;;;23.10;39.90;;;;;;6226567;22;19991;-91
2022/07/16 04:56:39;;;;;;;;;;;23.00;40.10;;;;;;6251257;23;19919;-91
2022/07/16 04:59:05;;;;;;;;;;;23.00;40.40;;;;;;6250697;23;19904;-90
2022/07/16 05:01:30;;;;;;;;;;;22.90;41.40;;;;;;6251746;23;20228;-90
2022/07/16 05:03:56;;;;;;;;;;;22.70;42.70;;;;;;6251357;22;19915;-90
2022/07/16 05:06:22;;;;;;;;;;;22.40;43.90;;;;;;6251474;23;19917;-91
2022/07/16 05:08:47;;;;;;;;;;;22.20;45.30;;;;;;6251850;23;19931;-91
2022/07/16 05:11:13;;;;;;;;;;;21.90;46.80;;;;;;6252765;23;20309;-90
2022/07/16 05:13:38;;;;;;;;;;;21.70;48.20;;;;;;6251041;23;19931;-90
2022/07/16 05:16:04;;;;;;;;;;;21.50;49.70;;;;;;6251585;23;19904;-92
2022/07/16 05:18:29;;;;;;;;;;;21.30;52.00;;;;;;6252322;23;19907;-92
2022/07/16 05:20:55;;;;;;;;;;;21.20;53.80;;;;;;6252353;23;19907;-92
2022/07/16 05:23:20;;;;;;;;;;;21.10;55.20;;;;;;6251647;23;19900;-92
2022/07/16 05:25:46;;;;;;;;;;;21.00;56.40;;;;;;6230336;23;19910;-93
2022/07/16 05:28:12;;;;;;;;;;;21.00;57.20;;;;;;6250011;23;19912;-93
2022/07/16 05:30:37;;;;;;;;;;;21.00;58.00;;;;;;6250003;23;19914;-93
2022/07/16 05:33:03;;;;;;;;;;;21.00;58.70;;;;;;6251707;23;19912;-93
2022/07/16 05:35:28;;;;;;;;;;;21.00;59.40;;;;;;6254272;23;19908;-93
2022/07/16 05:37:54;;;;;;;;;;;21.10;59.80;;;;;;6251626;23;19919;-93
2022/07/16 05:40:19;;;;;;;;;;;21.20;60.10;;;;;;6250837;23;19907;-92
2022/07/16 05:42:44;;;;;;;;;;;21.20;60.20;;;;;;6250718;22;19990;-93
2022/07/16 05:45:10;;;;;;;;;;;21.30;60.50;;;;;;6249373;23;19904;-92
2022/07/16 05:47:36;;;;;;;;;;;21.40;61.00;;;;;;6253421;22;19912;-93
2022/07/16 05:50:02;;;;;;;;;;;21.50;61.50;;;;;;6250748;23;19907;-92
2022/07/16 05:52:29;;;;;;;;;;;21.70;61.90;;;;;;6224751;23;20421;-91
2022/07/16 05:54:55;;;;;;;;;;;21.90;62.40;;;;;;6250776;23;19900;-93
2022/07/16 05:57:20;;;;;;;;;;;22.20;63.00;;;;;;6250551;23;19997;-93
2022/07/16 05:59:46;;;;;;;;;;;22.50;63.40;;;;;;6248867;23;19930;-92
2022/07/16 06:02:11;;;;;;;;;;;22.80;63.80;;;;;;6249226;23;19912;-92
2022/07/16 06:04:37;;;;;;;;;;;23.10;63.90;;;;;;6224529;23;19915;-94
2022/07/16 06:07:02;;;;;;;;;;;23.40;63.90;;;;;;6246513;23;20246;-92
2022/07/16 06:09:27;;;;;;;;;;;23.60;63.50;;;;;;6254450;23;19965;-92
2022/07/16 06:11:53;;;;;;;;;;;23.80;63.60;;;;;;6252510;22;20034;-94
2022/07/16 06:14:19;;;;;;;;;;;23.90;63.70;;;;;;6249797;23;19904;-95
2022/07/16 06:16:44;;;;;;;;;;;24.10;64.00;;;;;;6250420;23;19912;-92
2022/07/16 06:19:10;;;;;;;;;;;24.40;64.40;;;;;;6251591;23;19904;-94
2022/07/16 06:21:35;;;;;;;;;;;24.70;62.60;;;;;;6250484;23;19911;-94
2022/07/16 06:24:01;;;;;;;;;;;25.00;63.10;;;;;;6249949;23;19919;-94
2022/07/16 06:26:26;;;;;;;;;;;25.30;63.60;;;;;;6251886;22;19922;-94
2022/07/16 06:28:52;;;;;;;;;;;25.60;63.10;;;;;;6250147;23;19978;-94
2022/07/16 06:31:17;;;;;;;;;;;25.80;62.40;;;;;;6248644;22;19911;-92
2022/07/16 06:33:43;;;;;;;;;;;26.00;62.00;;;;;;6251345;23;19904;-95
2022/07/16 06:36:08;;;;;;;;;;;26.10;60.50;;;;;;6250080;22;19977;-94
2022/07/16 06:38:33;;;;;;;;;;;26.40;58.90;;;;;;6251837;23;19938;-92
2022/07/16 06:40:59;;;;;;;;;;;26.50;57.60;;;;;;6250636;23;20316;-93
2022/07/16 06:43:24;;;;;;;;;;;26.70;58.20;;;;;;6249535;23;19912;-92
2022/07/16 06:45:50;;;;;;;;;;;27.10;57.30;;;;;;6249799;23;19930;-93
2022/07/16 06:48:18;;;;;;;;;;;27.50;59.30;;;;;;6252511;23;19915;-94
2022/07/16 06:50:45;;;;;;;;;;;28.30;61.50;;;;;;6226457;23;19915;-96
2022/07/16 06:53:11;;;;;;;;;;;29.20;61.40;;;;;;6200184;23;20240;-93
2022/07/16 06:55:36;;;;;;;;;;;30.20;62.10;;;;;;6225264;23;19914;-93
2022/07/16 06:58:02;;;;;;;;;;;30.90;61.80;;;;;;6252057;23;19922;-93
2022/07/16 07:00:27;;;;;;;;;;;31.50;59.40;;;;;;6250446;23;20336;-92
2022/07/16 07:02:53;;;;;;;;;;;31.80;57.00;;;;;;6249827;23;20229;-93
2022/07/16 07:05:18;;;;;;;;;;;32.10;55.10;;;;;;6250817;23;19955;-93
2022/07/16 07:07:44;;;;;;;;;;;32.30;54.60;;;;;;6225561;23;19911;-93
2022/07/16 07:10:09;;;;;;;;;;;32.50;50.40;;;;;;6249645;23;20243;-93
2022/07/16 07:12:35;;;;;;;;;;;32.80;52.30;;;;;;6250379;23;20030;-94
2022/07/16 07:15:13;;;;;;;;;;;33.20;48.90;;;;;;6252054;23;19931;-95
2022/07/16 07:17:38;;;;;;;;;;;33.80;48.50;;;;;;6226420;23;19954;-93
2022/07/16 07:20:06;;;;;;;;;;;34.10;41.90;;;;;;6253056;23;19903;-94
2022/07/16 07:22:34;;;;;;;;;;;33.90;39.80;;;;;;6226794;23;19911;-93
2022/07/16 07:24:59;;;;;;;;;;;34.00;41.20;;;;;;6228174;23;19912;-93
2022/07/16 07:27:25;;;;;;;;;;;33.80;37.70;;;;;;6253565;23;19918;-93
2022/07/16 07:29:51;;;;;;;;;;;33.30;34.50;;;;;;6227571;23;19946;-91
2022/07/16 07:32:16;;;;;;;;;;;32.90;34.50;;;;;;6253356;23;19943;-94
2022/07/16 07:34:42;;;;;;;;;;;32.50;35.50;;;;;;6229095;23;19939;-92
2022/07/16 07:37:07;;;;;;;;;;;32.60;36.20;;;;;;6252549;23;19918;-92
2022/07/16 07:39:33;;;;;;;;;;;32.80;35.00;;;;;;6254197;23;19907;-92
2022/07/16 07:41:58;;;;;;;;;;;33.10;33.70;;;;;;6253426;22;20249;-93
2022/07/16 07:44:24;;;;;;;;;;;33.50;33.90;;;;;;6255216;22;19934;-94
2022/07/16 07:46:49;;;;;;;;;;;33.80;31.30;;;;;;6252803;23;19911;-93
2022/07/16 07:49:15;;;;;;;;;;;34.20;30.60;;;;;;6255408;23;20214;-93
2022/07/16 07:51:40;;;;;;;;;;;34.40;28.50;;;;;;6253960;23;19938;-93
2022/07/16 07:54:05;;;;;;;;;;;34.30;28.90;;;;;;6257270;23;19907;-94
2022/07/16 07:56:31;;;;;;;;;;;34.70;29.70;;;;;;6254083;23;19907;-92
2022/07/16 07:58:58;;;;;;;;;;;35.10;30.10;;;;;;6258661;23;19916;-92
2022/07/16 08:01:23;;;;;;;;;;;35.40;27.90;;;;;;6234942;22;19931;-92
2022/07/16 08:03:49;;;;;;;;;;;35.20;25.80;;;;;;6251452;23;20300;-92
2022/07/16 08:06:15;;;;;;;;;;;35.20;26.20;;;;;;6254166;22;19923;-93
2022/07/16 08:08:40;;;;;;;;;;;35.30;26.50;;;;;;6253065;23;19896;-93
2022/07/16 08:11:05;;;;;;;;;;;35.20;26.00;;;;;;6251510;22;19908;-93
2022/07/16 08:13:31;;;;;;;;;;;35.20;27.50;;;;;;6253401;23;20235;-94
2022/07/16 08:15:56;;;;;;;;;;;35.40;26.90;;;;;;6254887;23;19912;-94
2022/07/16 08:18:22;;;;;;;;;;;35.90;27.70;;;;;;6255064;23;19907;-94
2022/07/16 08:20:47;;;;;;;;;;;36.40;25.00;;;;;;6227265;23;19976;-92
2022/07/16 08:23:13;;;;;;;;;;;36.00;24.20;;;;;;6252713;23;19907;-91
2022/07/16 08:25:48;;;;;;;;;;;35.70;25.10;;;;;;6256658;23;19960;-92
2022/07/16 08:28:15;;;;;;;;;;;35.40;25.30;;;;;;6261577;22;19918;-93
2022/07/16 08:30:54;;;;;;;;;;;35.10;25.40;;;;;;6237428;23;20278;-94
2022/07/16 08:33:22;;;;;;;;;;;35.00;26.20;;;;;;6240640;22;19903;-93
2022/07/16 08:35:48;;;;;;;;;;;35.50;26.90;;;;;;6262405;23;19910;-92
2022/07/16 08:38:13;;;;;;;;;;;35.80;26.20;;;;;;6256241;22;20289;-93
2022/07/16 08:40:41;;;;;;;;;;;36.00;25.40;;;;;;6252502;22;19919;-92
2022/07/16 08:43:07;;;;;;;;;;;35.90;25.20;;;;;;6254545;23;19982;-93
2022/07/16 08:45:36;;;;;;;;;;;35.90;25.30;;;;;;6227665;23;19912;-92
2022/07/16 08:48:11;;;;;;;;;;;35.50;24.40;;;;;;6235373;22;19947;-92
2022/07/16 08:50:37;;;;;;;;;;;35.00;24.10;;;;;;6243371;23;19927;-93
2022/07/16 08:53:03;;;;;;;;;;;34.30;24.20;;;;;;6258808;23;19904;-91
2022/07/16 08:55:33;;;;;;;;;;;33.60;24.70;;;;;;6229042;23;19911;-93
2022/07/16 08:57:59;;;;;;;;;;;32.80;25.90;;;;;;6228875;23;19986;-92
2022/07/16 09:00:25;;;;;;;;;;;32.80;27.00;;;;;;6254673;22;19911;-93
2022/07/16 09:02:51;;;;;;;;;;;33.10;27.50;;;;;;6227737;23;19924;-93
2022/07/16 09:05:16;;;;;;;;;;;33.60;27.40;;;;;;6256222;22;19911;-93
2022/07/16 09:07:42;;;;;;;;;;;34.20;26.60;;;;;;6258900;23;19934;-92
2022/07/16 09:10:08;;;;;;;;;;;34.90;26.30;;;;;;6254510;22;19908;-92
2022/07/16 09:12:35;;;;;;;;;;;35.40;23.70;;;;;;6227072;23;19943;-92
2022/07/16 09:15:20;;;;;;;;;;;35.80;22.70;;;;;;6227582;23;19907;-93
2022/07/16 09:17:46;;;;;;;;;;;36.20;22.90;;;;;;6225973;23;19907;-93
2022/07/16 09:20:28;;;;;;;;;;;36.50;21.30;;;;;;6225710;23;19904;-93
2022/07/16 09:22:53;;;;;;;;;;;36.70;20.90;;;;;;6252829;22;19915;-92
2022/07/16 09:25:21;;;;;;;;;;;36.80;21.40;;;;;;6249250;22;19915;-91
2022/07/16 09:27:55;;;;;;;;;;;36.40;20.90;;;;;;6254262;22;20333;-93
2022/07/16 09:30:23;;;;;;;;;;;35.60;20.70;;;;;;6226804;23;19915;-92
2022/07/16 09:32:48;;;;;;;;;;;34.80;21.80;;;;;;6227134;23;19908;-93
2022/07/16 09:35:14;;;;;;;;;;;34.30;22.30;;;;;;6251881;23;20013;-93
2022/07/16 09:37:46;;;;;;;;;;;34.00;22.90;;;;;;6226581;23;19958;-93
2022/07/16 09:40:15;;;;;;;;;;;33.90;23.00;;;;;;6252900;23;20355;-93
2022/07/16 09:42:40;;;;;;;;;;;34.10;23.50;;;;;;6251986;22;19912;-92
2022/07/16 09:45:07;;;;;;;;;;;34.70;23.60;;;;;;6251293;23;20335;-93
2022/07/16 09:47:32;;;;;;;;;;;35.50;22.50;;;;;;6252612;23;20228;-94
2022/07/16 09:49:58;;;;;;;;;;;36.20;21.60;;;;;;6228361;23;19912;-93
2022/07/16 09:52:31;;;;;;;;;;;37.00;20.70;;;;;;6253565;23;19964;-93
2022/07/16 09:54:57;;;;;;;;;;;37.50;19.80;;;;;;6226948;23;19903;-93
2022/07/16 09:57:25;;;;;;;;;;;37.50;18.70;;;;;;6227791;22;20319;-93
2022/07/16 09:59:51;;;;;;;;;;;36.90;18.80;;;;;;6254455;23;19931;-91
2022/07/16 10:02:17;;;;;;;;;;;36.20;19.30;;;;;;6225558;22;19904;-91
2022/07/16 10:04:42;;;;;;;;;;;35.80;20.00;;;;;;6253540;23;19903;-91
2022/07/16 10:07:08;;;;;;;;;;;35.30;20.20;;;;;;6261637;22;19908;-92
2022/07/16 10:09:38;;;;;;;;;;;34.60;20.70;;;;;;6261473;23;19961;-92
2022/07/16 10:12:06;;;;;;;;;;;34.30;21.50;;;;;;6269015;23;19910;-92
2022/07/16 10:14:34;;;;;;;;;;;34.60;22.00;;;;;;6263813;22;19912;-93
2022/07/16 10:17:00;;;;;;;;;;;35.30;21.50;;;;;;6235228;23;20319;-92
2022/07/16 10:19:36;;;;;;;;;;;36.20;21.20;;;;;;6240683;23;19947;-93
2022/07/16 10:22:14;;;;;;;;;;;36.80;20.50;;;;;;6264840;22;19912;-93
2022/07/16 10:24:44;;;;;;;;;;;36.90;19.90;;;;;;6234798;23;19911;-91
2022/07/16 10:27:19;;;;;;;;;;;36.80;19.30;;;;;;6229257;23;19908;-93
2022/07/16 10:29:45;;;;;;;;;;;37.00;19.40;;;;;;6233007;23;19919;-93
2022/07/16 10:32:30;;;;;;;;;;;37.50;19.60;;;;;;6258070;23;19904;-94
2022/07/16 10:34:59;;;;;;;;;;;37.40;19.40;;;;;;6254918;23;19911;-92
2022/07/16 10:37:26;;;;;;;;;;;36.70;19.90;;;;;;6229017;23;20326;-92
2022/07/16 10:39:59;;;;;;;;;;;36.00;20.60;;;;;;6256065;22;19918;-92
2022/07/16 10:42:25;;;;;;;;;;;35.20;21.20;;;;;;6234426;23;19904;-93
2022/07/16 10:44:50;;;;;;;;;;;34.80;22.00;;;;;;6258732;23;19939;-93
2022/07/16 10:47:17;;;;;;;;;;;34.90;21.90;;;;;;6228959;23;20334;-93
2022/07/16 10:49:43;;;;;;;;;;;34.90;21.80;;;;;;6228674;23;19912;-94
2022/07/16 10:52:10;;;;;;;;;;;35.10;21.90;;;;;;6255705;23;20236;-92
2022/07/16 10:54:39;;;;;;;;;;;35.80;21.80;;;;;;6232369;23;19947;-93
2022/07/16 10:57:25;;;;;;;;;;;36.20;21.10;;;;;;6233538;23;19915;-92
2022/07/16 10:59:51;;;;;;;;;;;36.60;20.20;;;;;;6237476;23;20312;-94
2022/07/16 11:02:17;;;;;;;;;;;36.70;19.30;;;;;;6258675;23;19908;-91
2022/07/16 11:04:44;;;;;;;;;;;36.00;19.10;;;;;;6236306;23;19908;-92
2022/07/16 11:07:14;;;;;;;;;;;35.20;19.60;;;;;;6233205;23;19908;-93
2022/07/16 11:09:41;;;;;;;;;;;35.10;20.30;;;;;;6234168;23;20224;-91
2022/07/16 11:12:07;;;;;;;;;;;35.50;20.10;;;;;;6234323;23;19907;-91
2022/07/16 11:14:41;;;;;;;;;;;35.50;19.60;;;;;;6263814;22;19914;-91
2022/07/16 11:17:07;;;;;;;;;;;34.90;20.10;;;;;;6239328;23;19935;-92
2022/07/16 11:19:37;;;;;;;;;;;34.50;20.60;;;;;;6261408;23;19908;-91
2022/07/16 11:22:02;;;;;;;;;;;34.80;20.50;;;;;;6234647;23;19907;-93
2022/07/16 11:24:29;;;;;;;;;;;35.40;19.60;;;;;;6263228;22;19918;-92
2022/07/16 11:26:58;;;;;;;;;;;35.80;19.00;;;;;;6236362;23;19912;-92
2022/07/16 11:29:24;;;;;;;;;;;36.10;18.70;;;;;;6235192;23;19914;-92
2022/07/16 11:31:51;;;;;;;;;;;36.30;18.60;;;;;;6261259;22;19912;-92
2022/07/16 11:34:22;;;;;;;;;;;36.20;18.50;;;;;;6263432;23;19904;-93
2022/07/16 11:37:07;;;;;;;;;;;36.50;18.20;;;;;;6267672;22;19956;-93
2022/07/16 11:39:58;;;;;;;;;;;36.80;17.80;;;;;;6264593;22;19908;-93
2022/07/16 11:42:23;;;;;;;;;;;37.00;17.60;;;;;;6235145;23;19919;-91
2022/07/16 11:44:49;;;;;;;;;;;37.30;17.30;;;;;;6263517;23;20236;-93
2022/07/16 11:47:15;;;;;;;;;;;37.50;17.10;;;;;;6261143;23;19907;-91
2022/07/16 11:49:44;;;;;;;;;;;37.90;17.30;;;;;;6234709;23;19946;-93
2022/07/16 11:52:14;;;;;;;;;;;38.40;16.70;;;;;;6234950;23;19908;-92
2022/07/16 11:54:40;;;;;;;;;;;37.80;16.80;;;;;;6234444;23;19912;-92
2022/07/16 11:57:11;;;;;;;;;;;36.80;17.00;;;;;;6235060;23;19924;-91
2022/07/16 11:59:47;;;;;;;;;;;36.30;17.50;;;;;;6233276;23;19994;-93
2022/07/16 12:02:17;;;;;;;;;;;36.50;17.60;;;;;;6231499;23;19994;-93
2022/07/16 12:04:52;;;;;;;;;;;36.90;17.30;;;;;;6209663;23;19911;-91
2022/07/16 12:07:30;;;;;;;;;;;37.60;16.90;;;;;;6233264;23;19915;-92
2022/07/16 12:09:56;;;;;;;;;;;38.10;16.40;;;;;;6233253;23;19908;-92
2022/07/16 12:12:23;;;;;;;;;;;38.70;16.50;;;;;;6259238;22;19912;-93
2022/07/16 12:14:54;;;;;;;;;;;39.20;16.10;;;;;;6260204;23;19915;-93
2022/07/16 12:17:46;;;;;;;;;;;39.60;15.20;;;;;;6234926;23;19912;-94
2022/07/16 12:20:13;;;;;;;;;;;39.80;15.00;;;;;;6260865;23;19910;-92
2022/07/16 12:28:58;;;;;;;;;;;40.70;14.80;;;;;;6155203;23;19956;-92
2022/07/16 12:34:52;;;;;;;;;;;40.80;13.70;;;;;;6179633;23;19935;-93
2022/07/16 12:37:18;;;;;;;;;;;41.00;13.80;;;;;;6263023;23;19911;-93
2022/07/16 12:39:43;;;;;;;;;;;40.70;13.60;;;;;;6259514;23;19912;-92
2022/07/16 12:42:09;;;;;;;;;;;40.50;13.80;;;;;;6258035;23;19915;-93
2022/07/16 12:44:34;;;;;;;;;;;40.60;13.70;;;;;;6259466;22;19969;-93
2022/07/16 12:47:00;;;;;;;;;;;40.70;13.50;;;;;;6230811;23;19915;-93
2022/07/16 12:49:26;;;;;;;;;;;39.90;13.80;;;;;;6258252;23;19915;-93
2022/07/16 12:51:52;;;;;;;;;;;39.20;14.30;;;;;;6231464;23;19922;-92
2022/07/16 12:54:19;;;;;;;;;;;38.30;14.80;;;;;;6229187;23;19995;-92
2022/07/16 12:59:32;;;;;;;;;;;37.30;15.50;;;;;;6258419;23;19934;-93
2022/07/16 13:01:57;;;;;;;;;;;37.70;15.60;;;;;;6258462;22;19912;-92
2022/07/16 13:04:26;;;;;;;;;;;38.10;15.40;;;;;;6261437;23;19910;-91
2022/07/16 13:06:52;;;;;;;;;;;38.40;15.20;;;;;;6261031;22;19942;-93
2022/07/16 13:09:17;;;;;;;;;;;38.30;15.20;;;;;;6252503;23;19918;-92
2022/07/16 13:11:43;;;;;;;;;;;37.80;15.40;;;;;;6249854;23;19919;-93
2022/07/16 13:14:11;;;;;;;;;;;37.70;15.70;;;;;;6267242;23;19908;-92
2022/07/16 13:16:37;;;;;;;;;;;37.10;15.90;;;;;;6235918;23;19962;-92
2022/07/16 13:19:03;;;;;;;;;;;36.60;16.50;;;;;;6202311;23;19958;-93
2022/07/16 13:21:29;;;;;;;;;;;36.70;16.30;;;;;;6226375;23;19933;-92
2022/07/16 13:23:55;;;;;;;;;;;36.90;16.40;;;;;;6222814;23;20224;-92
2022/07/16 13:26:22;;;;;;;;;;;37.30;16.10;;;;;;6223209;23;19916;-92
2022/07/16 13:28:48;;;;;;;;;;;37.70;15.90;;;;;;6248612;23;19903;-92
2022/07/16 13:31:14;;;;;;;;;;;37.30;15.80;;;;;;6248779;23;19930;-93
2022/07/16 13:33:39;;;;;;;;;;;36.70;16.00;;;;;;6221029;23;20236;-93
2022/07/16 13:36:09;;;;;;;;;;;36.00;16.30;;;;;;6222051;23;19912;-92
2022/07/16 13:38:38;;;;;;;;;;;35.50;16.70;;;;;;6248695;23;19904;-92
2022/07/16 13:41:07;;;;;;;;;;;35.60;16.80;;;;;;6220898;23;19918;-92
2022/07/16 13:43:35;;;;;;;;;;;35.80;16.70;;;;;;6223300;23;19912;-92
2022/07/16 13:46:02;;;;;;;;;;;35.30;16.90;;;;;;6224729;23;19915;-91
2022/07/16 13:48:34;;;;;;;;;;;34.70;17.70;;;;;;6224067;23;19970;-92
2022/07/16 13:50:59;;;;;;;;;;;34.80;17.80;;;;;;6223587;23;19912;-92
2022/07/16 13:53:25;;;;;;;;;;;34.50;18.00;;;;;;6221694;23;20351;-92
2022/07/16 13:55:51;;;;;;;;;;;34.00;18.50;;;;;;6251382;23;19995;-92
2022/07/16 13:58:17;;;;;;;;;;;33.50;18.90;;;;;;6249174;23;20049;-92
2022/07/16 14:00:46;;;;;;;;;;;33.70;19.10;;;;;;6222168;23;19904;-92
2022/07/16 14:03:12;;;;;;;;;;;34.00;19.10;;;;;;6223044;23;19978;-91
2022/07/16 14:05:38;;;;;;;;;;;34.30;18.80;;;;;;6248090;23;19907;-92
2022/07/16 14:08:04;;;;;;;;;;;34.30;18.40;;;;;;6251105;22;19935;-92
2022/07/16 14:10:29;;;;;;;;;;;33.90;18.50;;;;;;6250303;23;19919;-91
2022/07/16 14:12:55;;;;;;;;;;;33.40;18.90;;;;;;6252631;23;19907;-91
2022/07/16 14:15:21;;;;;;;;;;;33.00;19.20;;;;;;6256048;23;19895;-92
2022/07/16 14:17:46;;;;;;;;;;;32.70;19.70;;;;;;6249735;22;19912;-91
2022/07/16 14:20:13;;;;;;;;;;;32.40;20.10;;;;;;6247545;23;19915;-91
2022/07/16 14:22:42;;;;;;;;;;;32.20;20.20;;;;;;6250342;22;19912;-91
2022/07/16 14:25:11;;;;;;;;;;;32.00;20.40;;;;;;6250818;23;19914;-91
2022/07/16 14:27:36;;;;;;;;;;;31.80;20.70;;;;;;6225437;23;19908;-91